Time;durP1;ratioP1;P1;durP2;ratioP2;P2;SDS_P1;SDS_P2;PMS_P1;PMS_P2;Temp;Humidity;BMP_temperature;BMP_pressure;BME280_temperature;BME280_humidity;BME280_pressure;Samples;Min_cycle;Max_cycle;Signal;HPM_P1;HPM_P2
2021/10/26 00:01:11;;;;;;;12.48;9.82;;;13.40;85.00;;;;;;5044827;28;20018;-85
2021/10/26 00:03:37;;;;;;;12.10;9.23;;;13.40;85.00;;;;;;5052376;28;20491;-83
2021/10/26 00:06:04;;;;;;;12.88;10.00;;;13.40;85.10;;;;;;5052626;28;20611;-83
2021/10/26 00:08:30;;;;;;;10.35;7.35;;;13.40;85.10;;;;;;5052050;28;20025;-84
2021/10/26 00:10:55;;;;;;;15.73;11.30;;;13.40;85.00;;;;;;5052641;28;20079;-83
2021/10/26 00:13:21;;;;;;;15.35;10.02;;;13.40;85.00;;;;;;5051300;28;20033;-83
2021/10/26 00:15:47;;;;;;;15.55;11.48;;;13.40;85.20;;;;;;5052693;28;20025;-84
2021/10/26 00:18:13;;;;;;;11.30;8.25;;;13.30;85.10;;;;;;5052712;28;20412;-83
2021/10/26 00:20:38;;;;;;;14.55;10.23;;;13.40;85.20;;;;;;5053306;28;20037;-84
2021/10/26 00:23:04;;;;;;;11.80;9.00;;;13.40;85.20;;;;;;5052851;28;20021;-84
2021/10/26 00:25:30;;;;;;;10.60;8.50;;;13.40;85.10;;;;;;5051931;28;20036;-84
2021/10/26 00:27:56;;;;;;;10.88;7.78;;;13.40;85.10;;;;;;5052663;28;20151;-84
2021/10/26 00:30:21;;;;;;;11.65;8.98;;;13.50;85.00;;;;;;5052954;28;20495;-84
2021/10/26 00:32:47;;;;;;;13.35;9.15;;;13.40;85.00;;;;;;5053003;28;20021;-84
2021/10/26 00:35:12;;;;;;;12.45;10.02;;;13.40;85.00;;;;;;5052982;28;20032;-84
2021/10/26 00:37:38;;;;;;;11.57;8.50;;;13.40;85.10;;;;;;5051173;28;20086;-84
2021/10/26 00:40:06;;;;;;;12.35;9.50;;;13.40;85.10;;;;;;5051867;28;20090;-84
2021/10/26 00:42:32;;;;;;;13.85;9.93;;;13.40;85.10;;;;;;5052640;28;20102;-83
2021/10/26 00:44:58;;;;;;;11.27;7.68;;;13.50;85.10;;;;;;5045867;28;20024;-82
2021/10/26 00:47:24;;;;;;;16.77;11.32;;;13.40;85.10;;;;;;5052150;28;20025;-83
2021/10/26 00:49:49;;;;;;;13.38;9.57;;;13.50;85.10;;;;;;5051495;28;20037;-84
2021/10/26 00:52:15;;;;;;;14.27;10.18;;;13.40;85.10;;;;;;5052957;28;20025;-84
2021/10/26 00:54:40;;;;;;;9.68;7.40;;;13.40;85.10;;;;;;5052329;28;20021;-83
2021/10/26 00:57:07;;;;;;;7.32;5.40;;;13.50;85.10;;;;;;5051822;28;20025;-83
2021/10/26 00:59:32;;;;;;;13.98;10.00;;;13.50;85.10;;;;;;5052825;28;20032;-83
2021/10/26 01:01:58;;;;;;;9.55;7.85;;;13.50;85.10;;;;;;5050927;28;20025;-82
2021/10/26 01:04:23;;;;;;;11.40;8.55;;;13.50;85.10;;;;;;5051946;28;20112;-83
2021/10/26 01:06:49;;;;;;;15.63;11.02;;;13.40;85.00;;;;;;5051989;28;20029;-83
2021/10/26 01:09:16;;;;;;;11.65;8.80;;;13.40;85.20;;;;;;5052340;28;20040;-83
2021/10/26 01:11:43;;;;;;;11.15;8.40;;;13.40;85.20;;;;;;5050657;28;20036;-83
2021/10/26 01:14:10;;;;;;;9.85;6.85;;;13.50;85.30;;;;;;5051676;28;20028;-83
2021/10/26 01:16:37;;;;;;;14.75;11.18;;;13.40;85.10;;;;;;5052056;28;20017;-83
2021/10/26 01:19:02;;;;;;;12.75;9.77;;;13.50;85.20;;;;;;5051944;28;20032;-82
2021/10/26 01:21:29;;;;;;;12.90;8.60;;;13.40;85.10;;;;;;5051792;28;20037;-82
2021/10/26 01:23:55;;;;;;;13.95;9.35;;;13.50;85.20;;;;;;5052394;28;20029;-82
2021/10/26 01:26:21;;;;;;;17.23;11.93;;;13.50;85.20;;;;;;5051933;28;20020;-83
2021/10/26 01:28:46;;;;;;;10.80;7.50;;;13.50;85.10;;;;;;5051492;28;20043;-83
2021/10/26 01:31:12;;;;;;;15.68;10.82;;;13.50;85.20;;;;;;5052281;28;20029;-82
2021/10/26 01:33:38;;;;;;;19.05;13.57;;;13.50;85.20;;;;;;5051997;28;20081;-83
2021/10/26 01:36:04;;;;;;;14.27;10.73;;;13.40;85.30;;;;;;5051443;28;20061;-82
2021/10/26 01:38:30;;;;;;;12.02;9.02;;;13.40;85.30;;;;;;5051312;28;20049;-82
2021/10/26 01:40:55;;;;;;;13.05;10.27;;;13.40;85.30;;;;;;5065587;28;20032;-83
2021/10/26 01:43:21;;;;;;;15.88;11.15;;;13.40;85.30;;;;;;5051512;28;20055;-84
2021/10/26 01:45:47;;;;;;;13.32;9.57;;;13.40;85.30;;;;;;5050353;28;20025;-83
2021/10/26 01:48:12;;;;;;;12.10;9.10;;;13.40;85.30;;;;;;5049520;28;20368;-83
2021/10/26 01:50:38;;;;;;;12.32;10.10;;;13.40;85.30;;;;;;5051881;28;20095;-83
2021/10/26 01:53:04;;;;;;;13.30;10.15;;;13.40;85.30;;;;;;5051562;28;20357;-83
2021/10/26 01:55:29;;;;;;;19.38;12.90;;;13.50;85.40;;;;;;5049488;28;20111;-83
2021/10/26 01:57:55;;;;;;;13.75;9.52;;;13.40;85.30;;;;;;5049549;28;20053;-83
2021/10/26 02:00:22;;;;;;;14.82;10.10;;;13.40;85.30;;;;;;5051554;28;20425;-82
2021/10/26 02:02:49;;;;;;;11.05;8.48;;;13.50;85.40;;;;;;5046977;28;20052;-84
2021/10/26 02:05:16;;;;;;;16.35;11.32;;;13.50;85.30;;;;;;5050048;28;20532;-84
2021/10/26 02:07:42;;;;;;;21.10;14.57;;;13.40;85.50;;;;;;5049547;28;20088;-84
2021/10/26 02:10:08;;;;;;;16.30;11.57;;;13.40;85.50;;;;;;5050001;28;20025;-84
2021/10/26 02:12:34;;;;;;;22.77;15.35;;;13.40;85.70;;;;;;5051151;28;20025;-84
2021/10/26 02:14:59;;;;;;;9.85;8.18;;;13.30;85.70;;;;;;5051077;28;20067;-84
2021/10/26 02:17:25;;;;;;;13.55;9.63;;;13.40;85.80;;;;;;5050713;28;20131;-84
2021/10/26 02:19:50;;;;;;;13.25;9.20;;;13.40;85.70;;;;;;5051158;28;20070;-85
2021/10/26 02:22:17;;;;;;;12.57;9.95;;;13.40;85.60;;;;;;5051315;28;20040;-85
2021/10/26 02:24:43;;;;;;;14.80;10.23;;;13.40;85.70;;;;;;5051433;28;20024;-86
2021/10/26 02:27:09;;;;;;;14.77;10.52;;;13.40;85.70;;;;;;5049317;28;20044;-85
2021/10/26 02:29:35;;;;;;;14.27;9.27;;;13.40;85.70;;;;;;5049879;28;20535;-87
2021/10/26 02:32:00;;;;;;;15.68;11.63;;;13.40;85.60;;;;;;5051147;28;20033;-84
2021/10/26 02:34:26;;;;;;;17.77;13.55;;;13.40;85.70;;;;;;5050576;28;20120;-84
2021/10/26 02:36:51;;;;;;;19.35;14.40;;;13.40;85.70;;;;;;5050927;28;20029;-84
2021/10/26 02:39:17;;;;;;;16.48;11.95;;;13.30;85.70;;;;;;5049312;28;20033;-84
2021/10/26 02:41:43;;;;;;;13.98;10.55;;;13.30;85.80;;;;;;5050947;28;20511;-85
2021/10/26 02:44:09;;;;;;;16.35;10.98;;;13.30;85.80;;;;;;5050378;28;20567;-84
2021/10/26 02:46:34;;;;;;;14.88;11.35;;;13.40;85.80;;;;;;5049281;28;20021;-85
2021/10/26 02:49:00;;;;;;;17.17;12.70;;;13.40;85.80;;;;;;5051753;28;20048;-86
2021/10/26 02:51:25;;;;;;;14.23;9.65;;;13.40;85.80;;;;;;5055202;28;20028;-85
2021/10/26 02:53:51;;;;;;;17.55;12.38;;;13.40;85.80;;;;;;5055012;28;20095;-83
2021/10/26 02:56:17;;;;;;;13.25;9.55;;;13.40;85.80;;;;;;5054828;28;20463;-83
2021/10/26 02:58:43;;;;;;;14.10;10.20;;;13.40;85.70;;;;;;5054510;28;20035;-83
2021/10/26 03:01:10;;;;;;;20.48;12.98;;;13.40;85.70;;;;;;5054986;28;20029;-83
2021/10/26 03:03:36;;;;;;;14.57;11.00;;;13.40;85.70;;;;;;5053226;28;20028;-83
2021/10/26 03:06:02;;;;;;;12.77;9.80;;;13.40;85.70;;;;;;5054544;28;20080;-83
2021/10/26 03:08:28;;;;;;;11.60;8.25;;;13.50;85.70;;;;;;5054080;28;20071;-84
2021/10/26 03:10:54;;;;;;;14.30;10.52;;;13.50;85.60;;;;;;5054801;28;20491;-90
2021/10/26 03:13:20;;;;;;;11.30;7.18;;;13.50;85.60;;;;;;5054254;28;20017;-89
2021/10/26 03:15:45;;;;;;;14.77;10.93;;;13.50;85.50;;;;;;5055533;28;20032;-89
2021/10/26 03:18:11;;;;;;;12.63;9.25;;;13.50;85.50;;;;;;5054351;28;20434;-87
2021/10/26 03:20:37;;;;;;;12.68;9.68;;;13.50;85.50;;;;;;5053694;28;20372;-87
2021/10/26 03:23:03;;;;;;;14.98;10.70;;;13.50;85.50;;;;;;5069992;28;20388;-88
2021/10/26 03:25:28;;;;;;;13.95;9.77;;;13.50;85.60;;;;;;5054846;28;20097;-88
2021/10/26 03:27:54;;;;;;;16.60;12.82;;;13.40;85.60;;;;;;5053559;28;20025;-84
2021/10/26 03:30:19;;;;;;;15.40;12.10;;;13.40;85.70;;;;;;5053789;28;20044;-86
2021/10/26 03:32:45;;;;;;;13.90;10.20;;;13.40;85.80;;;;;;5054787;28;20040;-87
2021/10/26 03:35:11;;;;;;;19.67;14.25;;;13.40;85.80;;;;;;5054228;28;20025;-87
2021/10/26 03:37:37;;;;;;;19.48;13.93;;;13.30;85.80;;;;;;5054049;28;20044;-87
2021/10/26 03:40:05;;;;;;;17.38;12.38;;;13.30;85.90;;;;;;5053650;28;20021;-86
2021/10/26 03:42:31;;;;;;;16.20;11.57;;;13.30;85.90;;;;;;5051796;28;20041;-86
2021/10/26 03:44:57;;;;;;;20.65;14.57;;;13.30;86.00;;;;;;5053117;28;20352;-86
2021/10/26 03:47:23;;;;;;;20.88;15.15;;;13.20;85.90;;;;;;5051445;28;20039;-84
2021/10/26 03:49:48;;;;;;;16.95;12.57;;;13.20;86.00;;;;;;5052780;28;20070;-82
2021/10/26 03:52:14;;;;;;;13.85;10.18;;;13.20;86.10;;;;;;5044394;28;20682;-84
2021/10/26 03:54:43;;;;;;;19.73;14.35;;;13.20;86.10;;;;;;5048336;28;20021;-84
2021/10/26 03:57:11;;;;;;;20.08;13.63;;;13.20;86.20;;;;;;5052607;28;20031;-84
2021/10/26 03:59:36;;;;;;;21.30;14.32;;;13.20;86.30;;;;;;5051754;28;20056;-82
2021/10/26 04:02:11;;;;;;;14.60;10.70;;;13.20;86.20;;;;;;5050513;28;20029;-82
2021/10/26 04:04:39;;;;;;;12.85;9.63;;;13.20;86.20;;;;;;5052625;28;20029;-82
2021/10/26 04:07:08;;;;;;;18.27;12.15;;;13.20;86.20;;;;;;5052398;28;20493;-85
2021/10/26 04:09:45;;;;;;;18.67;12.00;;;13.20;86.20;;;;;;5051713;28;20038;-85
2021/10/26 04:14:46;;;;;;;17.50;13.00;;;13.20;86.20;;;;;;5052946;28;20044;-85
2021/10/26 04:17:11;;;;;;;16.20;11.52;;;13.20;86.20;;;;;;5051635;28;20083;-84
2021/10/26 04:19:37;;;;;;;14.63;10.85;;;13.20;86.20;;;;;;5052374;28;20036;-83
2021/10/26 04:22:02;;;;;;;20.33;14.90;;;13.20;86.20;;;;;;5052842;28;20029;-87
2021/10/26 04:24:28;;;;;;;19.42;15.40;;;13.20;86.10;;;;;;5052309;28;20056;-87
2021/10/26 04:26:54;;;;;;;19.83;13.70;;;13.20;86.10;;;;;;5051606;28;20116;-86
2021/10/26 04:29:19;;;;;;;18.08;12.75;;;13.10;86.10;;;;;;5051276;28;20041;-87
2021/10/26 04:31:45;;;;;;;16.67;11.75;;;13.10;86.10;;;;;;5052438;28;20387;-87
2021/10/26 04:34:10;;;;;;;19.70;14.00;;;13.10;86.20;;;;;;5052470;28;20021;-85
2021/10/26 04:36:36;;;;;;;22.40;15.70;;;13.10;86.10;;;;;;5050940;28;20095;-86
2021/10/26 04:39:03;;;;;;;20.42;14.13;;;13.10;86.10;;;;;;5051917;28;20037;-86
2021/10/26 04:41:28;;;;;;;14.10;10.10;;;13.10;86.20;;;;;;5051010;28;20037;-87
2021/10/26 04:43:55;;;;;;;20.88;13.93;;;13.10;86.20;;;;;;5052274;28;20035;-84
2021/10/26 04:46:20;;;;;;;19.50;12.98;;;13.00;86.20;;;;;;5050790;28;20172;-85
2021/10/26 04:48:46;;;;;;;17.42;11.98;;;13.00;86.30;;;;;;5049807;28;20025;-86
2021/10/26 04:51:11;;;;;;;18.25;12.02;;;13.00;86.30;;;;;;5052091;28;20029;-83
2021/10/26 04:53:37;;;;;;;18.73;12.38;;;13.00;86.40;;;;;;5051301;28;20108;-84
2021/10/26 04:56:03;;;;;;;20.92;13.57;;;13.00;86.30;;;;;;5051725;28;20028;-87
2021/10/26 04:58:29;;;;;;;20.65;13.60;;;13.00;86.40;;;;;;5049972;28;20052;-88
2021/10/26 05:00:54;;;;;;;16.38;11.90;;;13.00;86.30;;;;;;5052909;28;20055;-88
2021/10/26 05:03:20;;;;;;;23.10;15.23;;;13.00;86.40;;;;;;5051861;28;20025;-88
2021/10/26 05:05:46;;;;;;;23.17;15.18;;;12.90;86.40;;;;;;5052488;28;20472;-88
2021/10/26 05:08:11;;;;;;;18.80;13.02;;;12.90;86.50;;;;;;5049638;28;20108;-85
2021/10/26 05:10:37;;;;;;;19.70;13.88;;;12.90;86.50;;;;;;5050264;28;20083;-86
2021/10/26 05:13:02;;;;;;;20.83;14.20;;;12.90;86.60;;;;;;5050918;28;20083;-86
2021/10/26 05:15:28;;;;;;;20.98;13.43;;;12.90;86.60;;;;;;5051854;28;20028;-86
2021/10/26 05:17:54;;;;;;;16.73;11.25;;;12.90;86.60;;;;;;5050603;28;20029;-86
2021/10/26 05:20:21;;;;;;;24.52;16.77;;;12.90;86.60;;;;;;5051800;28;20079;-85
2021/10/26 05:22:50;;;;;;;22.02;15.25;;;12.90;86.50;;;;;;5049630;28;20430;-87
2021/10/26 05:25:16;;;;;;;19.48;12.68;;;12.90;86.50;;;;;;5050346;28;20392;-83
2021/10/26 05:27:42;;;;;;;17.67;11.35;;;12.90;86.50;;;;;;5050999;28;20029;-84
2021/10/26 05:30:08;;;;;;;29.67;19.83;;;12.90;86.50;;;;;;5050953;28;20076;-82
2021/10/26 05:32:34;;;;;;;22.33;14.70;;;12.90;86.50;;;;;;5050774;28;20150;-84
2021/10/26 05:35:00;;;;;;;21.25;14.52;;;12.80;86.50;;;;;;5049540;28;20115;-84
2021/10/26 05:37:25;;;;;;;20.13;13.25;;;12.80;86.60;;;;;;5050331;28;20079;-83
2021/10/26 05:39:51;;;;;;;25.08;16.20;;;12.80;86.60;;;;;;5051161;28;20032;-78
2021/10/26 05:42:16;;;;;;;14.43;9.90;;;12.80;86.70;;;;;;5051145;28;20468;-83
2021/10/26 05:44:42;;;;;;;20.10;13.38;;;12.80;86.70;;;;;;5050745;28;20147;-83
2021/10/26 05:47:08;;;;;;;19.33;13.93;;;12.80;86.60;;;;;;5049954;28;20523;-83
2021/10/26 05:49:34;;;;;;;16.42;12.13;;;12.80;86.60;;;;;;5046917;28;20095;-83
2021/10/26 05:52:00;;;;;;;32.28;20.60;;;12.80;86.60;;;;;;5050407;28;20029;-82
2021/10/26 05:54:26;;;;;;;24.17;15.45;;;12.80;86.60;;;;;;5048557;28;20025;-83
2021/10/26 05:56:51;;;;;;;20.23;13.32;;;12.70;86.60;;;;;;5045292;28;20036;-83
2021/10/26 05:59:18;;;;;;;14.77;10.85;;;12.70;86.70;;;;;;5051018;28;20462;-83
2021/10/26 06:01:44;;;;;;;21.73;12.07;;;12.70;86.70;;;;;;5049403;28;20037;-83
2021/10/26 06:04:09;;;;;;;18.38;12.52;;;12.70;86.70;;;;;;5044965;28;20061;-82
2021/10/26 06:06:36;;;;;;;19.80;12.80;;;12.70;86.60;;;;;;5049540;28;20104;-82
2021/10/26 06:09:02;;;;;;;16.90;11.25;;;12.70;86.60;;;;;;5048258;28;20447;-81
2021/10/26 06:11:29;;;;;;;26.45;16.98;;;12.70;86.60;;;;;;5049963;28;20040;-79
2021/10/26 06:14:04;;;;;;;22.17;14.52;;;12.70;86.70;;;;;;5052096;28;20028;-81
2021/10/26 06:16:33;;;;;;;13.65;9.63;;;12.60;86.70;;;;;;5052865;28;20025;-78
2021/10/26 06:18:59;;;;;;;21.05;14.20;;;12.60;86.80;;;;;;5050015;28;20025;-83
2021/10/26 06:21:25;;;;;;;21.05;14.25;;;12.60;86.80;;;;;;5050707;28;20021;-82
2021/10/26 06:23:51;;;;;;;23.70;15.45;;;12.60;86.90;;;;;;5049792;28;20029;-83
2021/10/26 06:26:16;;;;;;;28.67;16.17;;;12.60;87.00;;;;;;5050007;28;20025;-81
2021/10/26 06:28:42;;;;;;;22.23;14.63;;;12.60;86.90;;;;;;5049492;28;20487;-83
2021/10/26 06:31:07;;;;;;;19.95;13.23;;;12.60;86.90;;;;;;5050367;28;20041;-78
2021/10/26 06:33:33;;;;;;;20.38;13.57;;;12.70;86.90;;;;;;5048308;28;20391;-83
2021/10/26 06:35:58;;;;;;;27.05;17.25;;;12.60;86.80;;;;;;5048975;28;20017;-83
2021/10/26 06:38:24;;;;;;;25.80;16.00;;;12.60;86.80;;;;;;5049790;28;20029;-82
2021/10/26 06:40:50;;;;;;;20.65;13.75;;;12.60;86.90;;;;;;5049449;28;20025;-78
2021/10/26 06:43:15;;;;;;;23.42;14.27;;;12.50;86.90;;;;;;5042219;28;20080;-82
2021/10/26 06:45:41;;;;;;;20.95;12.90;;;12.50;87.00;;;;;;5040307;28;20083;-79
2021/10/26 06:48:06;;;;;;;18.13;12.23;;;12.60;87.20;;;;;;5044689;28;20487;-81
2021/10/26 06:50:32;;;;;;;16.92;10.48;;;12.50;87.20;;;;;;5049185;28;20104;-81
2021/10/26 06:52:58;;;;;;;18.55;12.63;;;12.60;87.20;;;;;;5048625;28;20472;-80
2021/10/26 06:55:24;;;;;;;19.58;12.68;;;12.60;87.20;;;;;;5043191;28;20025;-83
2021/10/26 06:57:50;;;;;;;27.70;16.95;;;12.60;87.20;;;;;;5035225;28;20383;-79
2021/10/26 07:00:17;;;;;;;25.92;15.45;;;12.60;87.20;;;;;;5046221;28;20075;-81
2021/10/26 07:02:46;;;;;;;27.38;17.38;;;12.60;87.20;;;;;;5044678;28;20448;-80
2021/10/26 07:05:24;;;;;;;27.02;17.73;;;12.60;87.20;;;;;;5041746;28;20442;-78
2021/10/26 07:07:50;;;;;;;17.88;10.85;;;12.50;87.30;;;;;;5041087;28;20033;-80
2021/10/26 07:10:18;;;;;;;23.38;14.55;;;12.60;87.30;;;;;;5040453;28;20560;-80
2021/10/26 07:12:44;;;;;;;22.73;14.15;;;12.60;87.30;;;;;;5045945;28;20025;-78
2021/10/26 07:15:11;;;;;;;23.00;14.13;;;12.50;87.20;;;;;;5043017;28;20041;-83
2021/10/26 07:17:38;;;;;;;17.85;11.63;;;12.60;87.30;;;;;;5040591;28;20469;-81
2021/10/26 07:20:05;;;;;;;14.52;8.98;;;12.60;87.30;;;;;;5047380;28;20960;-82
2021/10/26 07:22:31;;;;;;;19.23;11.10;;;12.60;87.20;;;;;;5037333;28;20396;-80
2021/10/26 07:24:58;;;;;;;22.52;14.13;;;12.70;87.20;;;;;;5044932;28;20033;-80
2021/10/26 07:27:24;;;;;;;19.88;11.55;;;12.70;87.20;;;;;;5040183;28;20025;-80
2021/10/26 07:29:50;;;;;;;17.40;11.93;;;12.70;87.20;;;;;;5045818;28;20041;-80
2021/10/26 07:32:17;;;;;;;27.00;16.60;;;12.70;87.10;;;;;;5030384;28;20037;-80
2021/10/26 07:34:43;;;;;;;25.20;15.50;;;12.70;87.20;;;;;;5047069;28;20040;-83
2021/10/26 07:37:09;;;;;;;23.88;14.48;;;12.70;87.20;;;;;;5050745;28;20029;-81
2021/10/26 07:39:44;;;;;;;24.88;15.25;;;12.70;87.20;;;;;;5048796;28;20041;-81
2021/10/26 07:42:09;;;;;;;27.83;17.17;;;12.70;87.30;;;;;;5048224;28;20112;-80
2021/10/26 07:44:35;;;;;;;23.45;14.13;;;12.70;87.30;;;;;;5046688;28;20108;-81
2021/10/26 07:47:02;;;;;;;23.80;14.13;;;12.70;87.40;;;;;;5044840;28;20379;-78
2021/10/26 07:49:29;;;;;;;23.48;13.90;;;12.70;87.30;;;;;;5054151;28;20119;-78
2021/10/26 07:51:56;;;;;;;20.77;12.32;;;12.80;87.30;;;;;;5051475;28;20032;-77
2021/10/26 07:54:22;;;;;;;20.55;12.02;;;12.80;87.20;;;;;;5050766;28;20116;-78
2021/10/26 07:56:47;;;;;;;26.00;15.25;;;12.80;87.20;;;;;;5043368;28;20045;-78
2021/10/26 07:59:13;;;;;;;24.42;15.05;;;12.90;87.10;;;;;;5059117;28;20056;-83
2021/10/26 08:01:40;;;;;;;27.05;15.80;;;12.90;87.00;;;;;;5052977;28;20067;-86
2021/10/26 08:04:06;;;;;;;17.02;10.38;;;12.90;86.90;;;;;;5062434;28;20021;-82
2021/10/26 08:06:32;;;;;;;26.13;16.10;;;13.00;86.90;;;;;;5059323;28;20059;-85
2021/10/26 08:08:57;;;;;;;30.02;17.70;;;13.00;86.80;;;;;;5058962;28;20547;-84
2021/10/26 08:11:24;;;;;;;33.10;20.95;;;12.90;86.70;;;;;;5053887;28;20045;-86
2021/10/26 08:13:50;;;;;;;23.20;14.85;;;12.90;86.70;;;;;;5056114;28;20679;-78
2021/10/26 08:16:17;;;;;;;30.08;17.00;;;12.90;86.70;;;;;;5053220;28;20037;-82
2021/10/26 08:18:43;;;;;;;21.85;13.77;;;12.90;86.70;;;;;;5047470;28;20502;-78
2021/10/26 08:21:09;;;;;;;33.38;19.83;;;13.00;86.70;;;;;;5054224;28;20029;-77
2021/10/26 08:23:35;;;;;;;29.05;17.65;;;13.00;86.50;;;;;;5051276;28;20089;-78
2021/10/26 08:26:01;;;;;;;29.35;17.77;;;12.90;86.50;;;;;;5052876;28;20100;-79
2021/10/26 08:28:27;;;;;;;23.95;13.20;;;12.90;86.50;;;;;;5053153;28;20027;-82
2021/10/26 08:31:07;;;;;;;22.85;15.15;;;13.00;86.60;;;;;;5053290;28;20021;-81
2021/10/26 08:35:58;;;;;;;24.17;13.88;;;13.10;86.30;;;;;;5048856;28;20824;-82
2021/10/26 08:38:24;;;;;;;19.92;12.45;;;13.10;86.20;;;;;;5053029;28;20029;-83
2021/10/26 08:40:50;;;;;;;21.33;13.98;;;13.20;86.30;;;;;;5051506;28;20029;-85
2021/10/26 08:43:22;;;;;;;21.48;13.32;;;13.20;86.10;;;;;;5050129;28;20558;-83
2021/10/26 08:45:48;;;;;;;36.95;21.48;;;13.30;86.60;;;;;;5045098;28;20120;-81
2021/10/26 08:48:24;;;;;;;37.83;20.88;;;13.30;85.90;;;;;;5055252;28;20024;-85
2021/10/26 08:51:00;;;;;;;24.55;15.77;;;13.20;85.80;;;;;;5049098;28;20033;-79
2021/10/26 08:53:30;;;;;;;27.90;14.80;;;13.30;86.00;;;;;;5047963;28;20111;-81
2021/10/26 08:56:00;;;;;;;27.08;17.13;;;13.30;85.80;;;;;;5056968;28;20017;-79
2021/10/26 08:58:28;;;;;;;25.50;13.93;;;13.30;85.80;;;;;;5050810;28;20452;-81
2021/10/26 09:00:54;;;;;;;21.25;12.95;;;13.40;85.80;;;;;;5056174;28;20053;-82
2021/10/26 09:03:28;;;;;;;24.63;15.75;;;13.50;85.70;;;;;;5053797;28;20024;-83
2021/10/26 09:05:53;;;;;;;25.60;15.70;;;13.50;85.40;;;;;;5054011;28;20071;-82
2021/10/26 09:08:21;;;;;;;23.17;13.90;;;13.50;85.30;;;;;;5049936;28;20499;-81
2021/10/26 09:10:48;;;;;;;27.48;16.42;;;13.40;85.30;;;;;;5049331;28;20029;-84
2021/10/26 09:16:46;;;;;;;28.60;18.13;;;13.40;85.10;;;;;;5050980;28;20044;-80
2021/10/26 09:19:18;;;;;;;19.15;11.70;;;13.30;85.30;;;;;;5058192;28;20017;-83
2021/10/26 09:21:53;;;;;;;31.40;19.00;;;13.30;85.20;;;;;;5052610;28;20071;-82
2021/10/26 09:24:19;;;;;;;29.83;16.42;;;13.30;85.20;;;;;;5052558;28;20048;-81
2021/10/26 09:26:55;;;;;;;33.58;19.08;;;13.30;85.10;;;;;;5055078;28;20025;-82
2021/10/26 09:29:47;;;;;;;15.75;10.27;;;13.40;85.00;;;;;;5051608;28;20040;-82
2021/10/26 09:32:19;;;;;;;28.42;16.95;;;13.40;85.00;;;;;;5050160;28;20025;-84
2021/10/26 09:34:52;;;;;;;30.55;15.95;;;13.50;84.70;;;;;;5049424;28;20120;-84
2021/10/26 09:37:19;;;;;;;26.58;16.55;;;13.50;84.70;;;;;;5056499;28;20040;-84
2021/10/26 09:39:56;;;;;;;18.67;11.65;;;13.50;84.60;;;;;;5050325;28;20023;-78
2021/10/26 09:42:40;;;;;;;16.35;10.77;;;13.60;84.60;;;;;;5053838;28;20440;-85
2021/10/26 09:45:06;;;;;;;18.20;11.90;;;13.80;84.40;;;;;;5049359;28;20025;-79
2021/10/26 09:47:37;;;;;;;27.15;16.73;;;13.90;84.30;;;;;;5051675;28;20024;-79
2021/10/26 09:50:08;;;;;;;25.40;15.73;;;13.90;84.00;;;;;;5054331;28;20063;-80
2021/10/26 09:52:41;;;;;;;27.77;16.90;;;13.80;84.50;;;;;;5050462;28;20467;-79
2021/10/26 09:55:23;;;;;;;21.98;14.65;;;13.70;83.80;;;;;;5039040;28;20025;-79
2021/10/26 09:57:59;;;;;;;25.70;14.80;;;13.70;83.90;;;;;;5049981;28;20025;-79
2021/10/26 10:00:31;;;;;;;23.63;15.57;;;13.60;83.80;;;;;;5054915;28;20032;-84
2021/10/26 10:03:09;;;;;;;20.75;12.70;;;13.60;83.90;;;;;;5046638;28;20025;-83
2021/10/26 10:05:38;;;;;;;20.38;12.43;;;13.60;84.00;;;;;;5044916;28;20404;-85
2021/10/26 10:08:19;;;;;;;25.83;15.52;;;13.60;84.10;;;;;;5043901;28;20018;-86
2021/10/26 10:10:44;;;;;;;18.25;11.82;;;13.60;83.80;;;;;;5042707;28;20498;-84
2021/10/26 10:13:10;;;;;;;13.15;8.60;;;13.70;83.90;;;;;;5044133;28;20032;-84
2021/10/26 10:15:37;;;;;;;12.48;7.22;;;13.80;83.90;;;;;;5050288;28;20406;-86
2021/10/26 10:18:03;;;;;;;11.90;8.10;;;13.90;83.90;;;;;;5041815;28;20020;-85
2021/10/26 10:20:30;;;;;;;19.70;12.30;;;13.90;83.60;;;;;;5052242;28;20021;-86
2021/10/26 10:22:57;;;;;;;19.55;12.40;;;13.90;83.30;;;;;;5043311;28;20026;-88
2021/10/26 10:25:23;;;;;;;14.68;9.52;;;13.80;83.20;;;;;;5050285;28;20391;-88
2021/10/26 10:27:53;;;;;;;19.48;11.10;;;13.80;83.20;;;;;;5045384;28;20539;-82
2021/10/26 10:30:19;;;;;;;13.48;8.35;;;13.90;83.10;;;;;;5046719;28;20041;-82
2021/10/26 10:32:45;;;;;;;17.30;11.18;;;13.90;83.10;;;;;;5044060;28;20524;-86
2021/10/26 10:35:16;;;;;;;15.27;9.57;;;14.00;83.00;;;;;;5042260;28;20041;-84
2021/10/26 10:37:43;;;;;;;16.42;10.80;;;13.90;82.70;;;;;;5046307;28;20573;-82
2021/10/26 10:40:11;;;;;;;20.45;12.32;;;14.00;82.70;;;;;;5045726;28;20036;-87
2021/10/26 10:42:51;;;;;;;13.88;9.25;;;14.00;82.60;;;;;;5046470;28;20017;-85
2021/10/26 10:45:34;;;;;;;17.35;9.60;;;13.90;82.60;;;;;;5038978;28;20075;-87
2021/10/26 10:48:00;;;;;;;10.02;7.32;;;13.90;82.70;;;;;;5040380;28;20029;-82
2021/10/26 10:50:33;;;;;;;15.65;10.25;;;13.90;82.70;;;;;;5045117;28;20511;-85
2021/10/26 10:53:09;;;;;;;16.92;10.43;;;14.00;82.60;;;;;;5043568;28;20043;-84
2021/10/26 10:55:36;;;;;;;15.95;10.48;;;14.00;82.60;;;;;;5046607;28;20056;-85
2021/10/26 10:58:30;;;;;;;17.85;11.63;;;14.00;82.60;;;;;;5038866;28;20028;-83
2021/10/26 11:01:21;;;;;;;14.52;8.43;;;14.00;82.70;;;;;;5038416;28;20483;-82
2021/10/26 11:03:54;;;;;;;12.27;8.07;;;14.00;82.90;;;;;;5040093;28;20060;-82
2021/10/26 11:06:41;;;;;;;11.90;7.40;;;13.90;82.90;;;;;;5044642;28;20029;-81
2021/10/26 11:09:28;;;;;;;11.18;6.63;;;14.00;83.00;;;;;;5046479;28;20142;-90
2021/10/26 11:12:18;;;;;;;9.90;6.95;;;14.00;83.00;;;;;;5060813;28;20034;-88
2021/10/26 11:14:47;;;;;;;15.00;8.95;;;14.00;83.10;;;;;;5040043;28;20021;-86
2021/10/26 11:17:34;;;;;;;15.35;10.10;;;14.10;83.10;;;;;;5045709;28;20132;-92
2021/10/26 11:20:01;;;;;;;9.38;6.55;;;14.10;83.20;;;;;;5045274;28;20039;-86
2021/10/26 11:22:45;;;;;;;11.63;7.97;;;14.10;83.20;;;;;;5044774;28;20079;-90
2021/10/26 11:25:35;;;;;;;12.90;7.60;;;14.10;83.40;;;;;;5042583;28;20577;-85
2021/10/26 11:28:13;;;;;;;14.05;9.48;;;14.10;83.60;;;;;;5052278;28;20009;-87
2021/10/26 11:30:44;;;;;;;12.68;8.15;;;14.00;83.70;;;;;;5045553;28;20065;-86
2021/10/26 11:33:10;;;;;;;15.45;9.43;;;14.00;83.90;;;;;;5051229;28;20156;-86
2021/10/26 11:35:50;;;;;;;13.70;8.02;;;13.90;84.00;;;;;;5047610;28;20646;-83
2021/10/26 11:38:23;;;;;;;14.75;9.48;;;13.90;84.20;;;;;;5053971;28;20032;-84
2021/10/26 11:41:02;;;;;;;;;;;14.00;84.20;;;;;;5059205;28;20408;-80
2021/10/26 11:43:38;;;;;;;13.75;8.65;;;14.00;84.20;;;;;;5055200;28;19980;-83
2021/10/26 11:46:04;;;;;;;24.10;14.25;;;14.10;84.30;;;;;;5065877;28;20021;-81
2021/10/26 11:48:49;;;;;;;18.15;11.43;;;14.10;84.40;;;;;;5058796;28;20484;-82
2021/10/26 11:51:35;;;;;;;22.33;15.07;;;14.00;84.40;;;;;;5056913;28;20044;-86
2021/10/26 11:54:20;;;;;;;18.83;11.50;;;14.10;84.50;;;;;;5055200;28;20025;-77
2021/10/26 11:56:51;;;;;;;21.35;12.88;;;14.10;84.50;;;;;;5056162;28;20025;-77
2021/10/26 11:59:18;;;;;;;19.50;12.10;;;14.20;84.60;;;;;;5057823;28;20020;-77
2021/10/26 12:01:50;;;;;;;14.20;7.97;;;14.10;84.30;;;;;;5053766;28;20029;-81
2021/10/26 12:04:20;;;;;;;10.27;6.95;;;14.20;84.30;;;;;;5055327;28;20036;-85
2021/10/26 12:06:47;;;;;;;12.75;8.38;;;14.30;84.20;;;;;;5053820;28;20103;-82
2021/10/26 12:09:16;;;;;;;12.18;7.15;;;14.40;84.10;;;;;;5063389;28;20387;-87
2021/10/26 12:11:47;;;;;;;13.60;8.20;;;14.40;83.80;;;;;;5057217;28;20086;-84
2021/10/26 12:14:31;;;;;;;16.45;10.68;;;14.50;83.90;;;;;;5051541;28;20550;-86
2021/10/26 12:17:20;;;;;;;12.88;7.95;;;14.60;83.70;;;;;;5049981;28;20020;-85
2021/10/26 12:19:48;;;;;;;12.98;8.43;;;14.60;83.50;;;;;;5054944;28;20464;-80
2021/10/26 12:22:17;;;;;;;9.63;6.80;;;14.60;83.30;;;;;;5052845;28;20041;-82
2021/10/26 12:24:49;;;;;;;14.68;8.70;;;14.70;83.20;;;;;;5053815;28;20074;-88
2021/10/26 12:27:23;;;;;;;12.75;7.38;;;14.70;83.10;;;;;;5053495;28;20475;-93
2021/10/26 12:29:49;;;;;;;14.75;8.73;;;14.70;82.90;;;;;;5049981;28;20102;-82
2021/10/26 12:32:15;;;;;;;16.80;8.27;;;14.70;82.90;;;;;;5049841;28;20025;-80
2021/10/26 12:34:46;;;;;;;11.27;6.50;;;14.80;82.60;;;;;;5050116;28;20036;-79
2021/10/26 12:37:34;;;;;;;9.73;6.03;;;14.80;82.50;;;;;;5049649;28;20027;-83
2021/10/26 12:40:11;;;;;;;10.07;6.35;;;14.90;82.40;;;;;;5043410;28;20036;-83
2021/10/26 12:42:42;;;;;;;9.85;6.10;;;15.00;82.70;;;;;;5046287;28;20029;-85
2021/10/26 12:45:10;;;;;;;10.23;5.90;;;15.00;82.10;;;;;;5049955;28;20033;-82